Time;durP1;ratioP1;P1;durP2;ratioP2;P2;SDS_P1;SDS_P2;PMS_P1;PMS_P2;Temp;Humidity;BMP_temperature;BMP_pressure;BME280_temperature;BME280_humidity;BME280_pressure;Samples;Min_cycle;Max_cycle;Signal;HPM_P1;HPM_P2
2023/09/22 00:01:05;;;;;;;2.50;1.10;;;16.60;99.90;;;;;;5012146;28;20037;-73
2023/09/22 00:03:30;;;;;;;1.02;0.50;;;16.60;99.90;;;;;;5006014;28;20057;-73
2023/09/22 00:06:15;;;;;;;1.55;0.50;;;16.60;99.90;;;;;;4995302;28;20517;-73
2023/09/22 00:08:49;;;;;;;2.38;0.60;;;16.60;99.90;;;;;;4994604;28;20370;-74
2023/09/22 00:11:24;;;;;;;1.23;0.63;;;16.50;99.90;;;;;;5002468;28;20492;-73
2023/09/22 00:13:52;;;;;;;3.70;1.00;;;16.50;99.90;;;;;;5014546;28;20018;-74
2023/09/22 00:16:18;;;;;;;1.05;0.60;;;16.50;99.90;;;;;;5013223;28;20022;-74
2023/09/22 00:18:44;;;;;;;0.60;0.43;;;16.50;99.90;;;;;;5003660;28;20030;-73
2023/09/22 00:21:12;;;;;;;1.70;0.80;;;16.40;99.90;;;;;;5008302;28;20543;-73
2023/09/22 00:23:44;;;;;;;2.35;0.60;;;16.40;99.90;;;;;;5010131;28;20030;-73
2023/09/22 00:26:19;;;;;;;0.93;0.47;;;16.40;99.90;;;;;;5008644;28;20026;-73
2023/09/22 00:28:44;;;;;;;2.30;0.52;;;16.30;99.90;;;;;;5003524;28;20098;-73
2023/09/22 00:31:16;;;;;;;3.88;0.70;;;16.30;99.90;;;;;;5008564;28;20160;-73
2023/09/22 00:33:42;;;;;;;1.35;0.52;;;16.30;99.90;;;;;;5013930;28;20434;-73
2023/09/22 00:36:11;;;;;;;0.80;0.50;;;16.30;99.90;;;;;;5009044;28;20094;-73
2023/09/22 00:38:36;;;;;;;1.40;0.60;;;16.20;99.90;;;;;;5012063;28;20023;-73
2023/09/22 00:41:11;;;;;;;1.10;0.70;;;16.20;99.90;;;;;;5005361;28;20033;-73
2023/09/22 00:43:37;;;;;;;1.92;0.77;;;16.20;99.90;;;;;;5004747;28;20046;-73
2023/09/22 00:46:21;;;;;;;1.48;0.57;;;16.20;99.90;;;;;;5005144;28;20041;-73
2023/09/22 00:48:48;;;;;;;1.92;0.88;;;16.20;99.90;;;;;;5002788;28;20112;-73
2023/09/22 00:51:19;;;;;;;1.80;0.80;;;16.20;99.90;;;;;;5018810;28;20030;-74
2023/09/22 00:53:46;;;;;;;1.55;0.70;;;16.20;99.90;;;;;;5005255;28;20550;-74
2023/09/22 00:56:21;;;;;;;1.10;0.38;;;16.20;99.90;;;;;;5008665;28;20025;-74
2023/09/22 00:58:49;;;;;;;1.63;0.40;;;16.20;99.90;;;;;;5002434;28;20026;-73
2023/09/22 01:01:24;;;;;;;1.35;0.73;;;16.20;99.90;;;;;;5004177;28;20030;-73
2023/09/22 01:03:51;;;;;;;2.55;0.50;;;16.10;99.90;;;;;;5006035;28;20026;-73
2023/09/22 01:06:18;;;;;;;1.90;0.47;;;16.10;99.90;;;;;;5010067;28;20113;-73
2023/09/22 01:08:43;;;;;;;1.25;0.73;;;16.10;99.90;;;;;;5007779;28;20108;-73
2023/09/22 01:11:15;;;;;;;1.45;0.68;;;16.00;99.90;;;;;;5005117;28;20050;-73
2023/09/22 01:13:43;;;;;;;2.33;0.70;;;16.10;99.90;;;;;;5004726;28;20053;-73
2023/09/22 01:16:09;;;;;;;1.95;0.60;;;16.10;99.90;;;;;;4998416;28;20027;-73
2023/09/22 01:18:38;;;;;;;3.20;0.82;;;16.00;99.90;;;;;;4997160;28;20025;-73
2023/09/22 01:21:03;;;;;;;3.42;0.60;;;16.00;99.90;;;;;;5006536;28;20330;-73
2023/09/22 01:23:38;;;;;;;1.67;0.68;;;16.00;99.90;;;;;;5008851;28;20057;-73
2023/09/22 01:26:04;;;;;;;4.57;1.05;;;16.00;99.90;;;;;;5008363;28;20107;-73
2023/09/22 01:28:32;;;;;;;1.05;0.50;;;16.00;99.90;;;;;;5006137;28;20066;-73
2023/09/22 01:30:58;;;;;;;2.60;0.90;;;16.00;99.90;;;;;;4998907;28;20484;-74
2023/09/22 01:33:24;;;;;;;1.48;0.85;;;16.00;99.90;;;;;;5011351;28;20033;-73
2023/09/22 01:35:53;;;;;;;1.20;0.73;;;15.90;99.90;;;;;;5015076;28;20125;-73
2023/09/22 01:38:28;;;;;;;1.35;0.82;;;16.00;99.90;;;;;;5012733;28;20030;-73
2023/09/22 01:41:06;;;;;;;2.33;0.73;;;15.90;99.90;;;;;;5003980;28;20036;-74
2023/09/22 01:43:35;;;;;;;1.50;0.57;;;15.90;99.90;;;;;;5006060;28;20037;-73
2023/09/22 01:46:01;;;;;;;1.63;0.60;;;15.90;99.90;;;;;;5006825;28;20061;-73
2023/09/22 01:48:29;;;;;;;1.85;0.47;;;15.80;99.90;;;;;;4997026;28;20536;-73
2023/09/22 01:51:00;;;;;;;0.90;0.50;;;15.90;99.90;;;;;;5000758;28;20042;-73
2023/09/22 01:53:26;;;;;;;0.57;0.55;;;15.90;99.90;;;;;;5009490;28;20014;-74
2023/09/22 01:55:58;;;;;;;2.13;0.50;;;15.80;99.90;;;;;;5007016;28;20108;-74
2023/09/22 01:58:28;;;;;;;2.60;0.63;;;15.80;99.90;;;;;;5006585;28;20409;-74
2023/09/22 02:00:59;;;;;;;0.95;0.60;;;15.80;99.90;;;;;;5012631;28;20021;-74
2023/09/22 02:03:25;;;;;;;3.03;0.45;;;15.70;99.90;;;;;;5012428;28;20030;-74
2023/09/22 02:05:54;;;;;;;1.90;0.70;;;15.70;99.90;;;;;;5011200;28;20030;-74
2023/09/22 02:08:19;;;;;;;0.98;0.57;;;15.70;99.90;;;;;;5010413;28;20080;-74
2023/09/22 02:10:45;;;;;;;1.42;0.50;;;15.70;99.90;;;;;;5013393;28;20034;-74
2023/09/22 02:13:32;;;;;;;0.93;0.43;;;15.70;99.90;;;;;;5012526;28;20420;-73
2023/09/22 02:15:58;;;;;;;0.57;0.38;;;15.70;99.90;;;;;;4997039;28;20385;-73
2023/09/22 02:18:23;;;;;;;3.03;0.70;;;15.70;99.90;;;;;;5004906;28;20034;-74
2023/09/22 02:21:01;;;;;;;1.50;0.80;;;15.70;99.90;;;;;;5006162;28;21001;-74
2023/09/22 02:23:30;;;;;;;1.13;0.55;;;15.70;99.90;;;;;;5004742;28;20034;-74
2023/09/22 02:25:55;;;;;;;1.75;0.93;;;15.70;99.90;;;;;;5002893;28;20040;-74
2023/09/22 02:28:27;;;;;;;0.90;0.32;;;15.70;99.90;;;;;;5017218;28;20037;-72
2023/09/22 02:30:58;;;;;;;0.80;0.50;;;15.70;99.90;;;;;;4999370;28;20361;-73
2023/09/22 02:33:24;;;;;;;1.52;0.93;;;15.60;99.90;;;;;;5006970;28;20484;-73
2023/09/22 02:35:51;;;;;;;1.92;0.70;;;15.60;99.90;;;;;;5003063;28;20373;-73
2023/09/22 02:38:16;;;;;;;2.63;0.77;;;15.60;99.90;;;;;;5003052;28;20029;-74
2023/09/22 02:40:57;;;;;;;3.45;0.50;;;15.60;99.90;;;;;;4997792;28;20110;-73
2023/09/22 02:43:32;;;;;;;2.65;0.70;;;15.60;99.90;;;;;;5002347;28;20467;-73
2023/09/22 02:46:03;;;;;;;1.50;0.82;;;15.60;99.90;;;;;;5004824;28;20026;-73
2023/09/22 02:48:35;;;;;;;1.20;0.50;;;15.60;99.90;;;;;;5005220;28;20113;-72
2023/09/22 02:51:06;;;;;;;1.52;0.65;;;15.60;99.90;;;;;;5012506;28;20310;-72
2023/09/22 02:53:34;;;;;;;2.35;0.50;;;15.60;99.90;;;;;;5004140;28;20385;-72
2023/09/22 02:56:18;;;;;;;1.77;0.82;;;15.50;99.90;;;;;;5007794;28;20480;-72
2023/09/22 02:58:45;;;;;;;1.77;0.70;;;15.50;99.90;;;;;;5003038;28;20034;-72
2023/09/22 03:01:17;;;;;;;1.50;0.60;;;15.50;99.90;;;;;;5000286;28;20544;-72
2023/09/22 03:03:43;;;;;;;2.30;0.75;;;15.50;99.90;;;;;;5002949;28;20531;-71
2023/09/22 03:06:15;;;;;;;1.08;0.47;;;15.40;99.90;;;;;;5010280;28;20018;-72
2023/09/22 03:08:44;;;;;;;0.88;0.50;;;15.40;99.90;;;;;;5002554;28;20119;-71
2023/09/22 03:11:15;;;;;;;1.40;0.35;;;15.40;99.90;;;;;;5010043;28;20477;-74
2023/09/22 03:13:41;;;;;;;1.65;0.63;;;15.40;99.90;;;;;;5011674;28;20018;-73
2023/09/22 03:16:15;;;;;;;1.00;0.60;;;15.40;99.90;;;;;;5005156;28;20105;-73
2023/09/22 03:18:41;;;;;;;3.85;0.70;;;15.40;99.90;;;;;;5002594;28;20037;-73
2023/09/22 03:21:10;;;;;;;0.93;0.40;;;15.40;99.90;;;;;;5000655;28;20481;-72
2023/09/22 03:23:36;;;;;;;3.78;0.70;;;15.40;99.90;;;;;;5005463;28;20060;-72
2023/09/22 03:26:04;;;;;;;1.00;0.70;;;15.40;99.90;;;;;;5001234;28;20484;-73
2023/09/22 03:28:30;;;;;;;0.80;0.50;;;15.40;99.90;;;;;;5005382;28;20109;-73
2023/09/22 03:30:58;;;;;;;1.73;0.60;;;15.40;99.90;;;;;;5010467;28;20117;-73
2023/09/22 03:33:33;;;;;;;1.00;0.65;;;15.40;99.90;;;;;;5007255;28;20053;-73
2023/09/22 03:36:02;;;;;;;1.33;0.57;;;15.40;99.90;;;;;;5006469;28;20026;-73
2023/09/22 03:38:28;;;;;;;1.60;0.80;;;15.40;99.90;;;;;;5004858;28;20049;-72
2023/09/22 03:41:00;;;;;;;1.08;0.65;;;15.40;99.90;;;;;;5010904;28;20034;-72
2023/09/22 03:43:26;;;;;;;1.77;0.55;;;15.50;99.90;;;;;;5001840;28;20088;-72
2023/09/22 03:45:56;;;;;;;0.77;0.60;;;15.50;99.90;;;;;;5003467;28;20029;-72
2023/09/22 03:48:24;;;;;;;1.55;0.60;;;15.50;99.90;;;;;;5011248;28;20104;-72
2023/09/22 03:50:50;;;;;;;1.85;0.80;;;15.40;99.90;;;;;;5011339;28;20030;-73
2023/09/22 03:53:16;;;;;;;1.52;0.73;;;15.50;99.90;;;;;;5011247;28;20035;-72
2023/09/22 03:55:48;;;;;;;0.50;0.40;;;15.50;99.90;;;;;;4999391;28;20033;-73
2023/09/22 03:58:17;;;;;;;2.35;0.60;;;15.50;99.90;;;;;;5002390;28;20420;-72
2023/09/22 04:00:43;;;;;;;2.47;0.50;;;15.50;99.90;;;;;;5002013;28;20465;-71
2023/09/22 04:03:09;;;;;;;3.35;0.65;;;15.50;99.90;;;;;;5002774;28;20026;-71
2023/09/22 04:05:41;;;;;;;5.47;0.77;;;15.50;99.90;;;;;;5003626;28;20026;-71
2023/09/22 04:08:10;;;;;;;1.38;0.68;;;15.50;99.90;;;;;;5021342;28;20029;-71
2023/09/22 04:10:36;;;;;;;2.25;0.85;;;15.50;99.90;;;;;;5003260;28;20014;-71
2023/09/22 04:13:04;;;;;;;0.80;0.63;;;15.40;99.90;;;;;;5007748;28;20040;-71
2023/09/22 04:15:33;;;;;;;2.15;0.63;;;15.40;99.90;;;;;;5000929;28;20048;-71
2023/09/22 04:17:59;;;;;;;3.42;0.40;;;15.50;99.90;;;;;;5007437;28;20026;-71
2023/09/22 04:20:29;;;;;;;0.65;0.40;;;15.40;99.90;;;;;;5017537;28;20038;-71
2023/09/22 04:22:58;;;;;;;3.45;0.93;;;15.40;99.90;;;;;;5006199;28;20030;-71
2023/09/22 04:25:29;;;;;;;1.73;0.50;;;15.40;99.90;;;;;;5005457;28;20037;-71
2023/09/22 04:28:07;;;;;;;1.90;0.65;;;15.30;99.90;;;;;;5003331;28;20085;-71
2023/09/22 04:30:36;;;;;;;1.70;0.70;;;15.40;99.90;;;;;;5001313;28;20018;-72
2023/09/22 04:33:05;;;;;;;1.90;0.70;;;15.40;99.90;;;;;;5012419;28;20029;-73
2023/09/22 04:35:32;;;;;;;1.10;0.50;;;15.40;99.90;;;;;;5007121;28;20042;-72
2023/09/22 04:38:01;;;;;;;1.27;0.65;;;15.40;99.90;;;;;;5004079;28;20026;-72
2023/09/22 04:40:39;;;;;;;3.63;0.50;;;15.40;99.90;;;;;;5005365;28;20389;-71
2023/09/22 04:43:25;;;;;;;1.67;0.70;;;15.40;99.90;;;;;;5025074;28;20030;-71
2023/09/22 04:45:54;;;;;;;4.15;0.45;;;15.40;99.90;;;;;;5000844;28;20038;-72
2023/09/22 04:48:20;;;;;;;0.60;0.40;;;15.40;99.90;;;;;;5016493;28;20061;-72
2023/09/22 04:50:54;;;;;;;1.20;0.52;;;15.30;99.90;;;;;;5005564;28;20034;-71
2023/09/22 04:53:20;;;;;;;1.20;0.80;;;15.30;99.90;;;;;;5004610;28;20030;-71
2023/09/22 04:55:46;;;;;;;3.00;0.70;;;15.30;99.90;;;;;;5013919;28;20442;-72
2023/09/22 04:58:16;;;;;;;1.77;0.50;;;15.30;99.90;;;;;;5004017;28;20022;-72
2023/09/22 05:00:41;;;;;;;2.00;0.40;;;15.40;99.90;;;;;;5000977;28;20022;-72
2023/09/22 05:03:07;;;;;;;1.00;0.50;;;15.30;99.90;;;;;;4995134;28;20032;-74
2023/09/22 05:05:33;;;;;;;1.17;0.50;;;15.30;99.90;;;;;;5000590;28;20144;-74
2023/09/22 05:07:59;;;;;;;1.48;0.60;;;15.30;99.90;;;;;;5002543;28;20038;-75
2023/09/22 05:10:25;;;;;;;1.08;0.73;;;15.30;99.90;;;;;;5001786;28;20034;-74
2023/09/22 05:12:51;;;;;;;2.15;0.90;;;15.30;99.90;;;;;;5007655;28;20393;-74
2023/09/22 05:15:17;;;;;;;1.25;0.63;;;15.40;99.90;;;;;;5005401;28;20033;-74
2023/09/22 05:17:43;;;;;;;1.60;0.80;;;15.40;99.90;;;;;;4998617;28;20026;-74
2023/09/22 05:20:12;;;;;;;1.90;0.60;;;15.40;99.90;;;;;;4999420;28;20068;-74
2023/09/22 05:22:38;;;;;;;1.73;0.80;;;15.40;99.90;;;;;;5002079;28;20396;-74
2023/09/22 05:25:05;;;;;;;3.58;0.70;;;15.40;99.90;;;;;;5000738;28;20030;-74
2023/09/22 05:27:31;;;;;;;2.30;1.05;;;15.50;99.90;;;;;;4998655;28;20386;-74
2023/09/22 05:29:57;;;;;;;2.25;0.90;;;15.50;99.90;;;;;;5002703;28;20582;-74
2023/09/22 05:32:23;;;;;;;1.65;0.80;;;15.50;99.90;;;;;;4999235;28;20042;-73
2023/09/22 05:34:51;;;;;;;2.25;0.82;;;15.50;99.90;;;;;;4999749;28;20022;-74
2023/09/22 05:37:17;;;;;;;2.45;0.80;;;15.50;99.90;;;;;;4999857;28;20026;-73
2023/09/22 05:39:43;;;;;;;1.40;0.60;;;15.60;99.90;;;;;;5015886;28;20121;-75
2023/09/22 05:42:10;;;;;;;1.02;0.50;;;15.60;99.90;;;;;;4996817;28;20265;-73
2023/09/22 05:44:37;;;;;;;3.42;0.57;;;15.60;99.90;;;;;;4997908;28;20036;-74
2023/09/22 05:47:03;;;;;;;0.63;0.40;;;15.60;99.90;;;;;;5003705;28;20034;-74
2023/09/22 05:49:28;;;;;;;0.95;0.57;;;15.60;99.90;;;;;;5001370;28;20434;-75
2023/09/22 05:51:54;;;;;;;1.17;0.60;;;15.70;99.90;;;;;;4998173;28;20113;-72
2023/09/22 05:54:20;;;;;;;0.98;0.60;;;15.70;99.90;;;;;;4999676;28;20018;-73
2023/09/22 05:56:46;;;;;;;2.50;0.57;;;15.60;99.90;;;;;;5007163;28;20022;-72
2023/09/22 05:59:12;;;;;;;0.77;0.38;;;15.60;99.90;;;;;;5004711;28;20022;-72
2023/09/22 06:01:49;;;;;;;1.40;0.55;;;15.60;99.90;;;;;;5012156;28;20068;-72
2023/09/22 06:04:18;;;;;;;3.78;0.88;;;15.60;99.90;;;;;;4997561;28;20057;-72
2023/09/22 06:06:45;;;;;;;2.08;0.60;;;15.60;99.90;;;;;;5001403;28;20042;-73
2023/09/22 06:09:11;;;;;;;5.18;0.63;;;15.60;99.90;;;;;;5014932;28;20038;-75
2023/09/22 06:11:38;;;;;;;0.95;0.52;;;15.60;99.90;;;;;;5001437;28;20541;-73
2023/09/22 06:14:06;;;;;;;2.05;0.70;;;15.60;99.90;;;;;;5000759;28;20508;-75
2023/09/22 06:16:32;;;;;;;1.83;0.60;;;15.60;99.90;;;;;;5001397;28;20029;-74
2023/09/22 06:18:58;;;;;;;2.03;0.70;;;15.60;99.90;;;;;;5003225;28;20148;-72
2023/09/22 06:21:24;;;;;;;2.22;0.60;;;15.50;99.90;;;;;;5006011;28;20144;-73
2023/09/22 06:23:51;;;;;;;2.58;0.60;;;15.50;99.90;;;;;;5011157;28;20022;-73
2023/09/22 06:26:16;;;;;;;1.27;0.60;;;15.50;99.90;;;;;;5007350;28;20038;-72
2023/09/22 06:28:42;;;;;;;2.00;0.77;;;15.50;99.90;;;;;;5009353;28;20033;-72
2023/09/22 06:31:11;;;;;;;4.13;0.50;;;15.50;99.90;;;;;;5010077;28;20034;-73
2023/09/22 06:33:36;;;;;;;3.22;0.75;;;15.40;99.90;;;;;;5007351;28;20026;-73
2023/09/22 06:36:04;;;;;;;3.65;0.55;;;15.50;99.90;;;;;;5007620;28;20027;-72
2023/09/22 06:38:33;;;;;;;1.20;0.60;;;15.40;99.90;;;;;;5014175;28;20026;-72
2023/09/22 06:41:00;;;;;;;1.83;0.55;;;15.40;99.90;;;;;;5016094;28;20030;-72
2023/09/22 06:43:27;;;;;;;2.10;0.50;;;15.40;99.90;;;;;;5004557;28;20029;-72
2023/09/22 06:45:53;;;;;;;8.10;0.93;;;15.40;99.90;;;;;;5026956;28;20488;-73
2023/09/22 06:48:29;;;;;;;21.35;2.42;;;15.40;99.90;;;;;;5008810;28;20061;-72
2023/09/22 06:50:58;;;;;;;15.65;2.10;;;15.50;99.90;;;;;;5023337;28;20404;-72
2023/09/22 06:53:26;;;;;;;5.60;0.90;;;15.50;99.90;;;;;;5005432;28;20509;-73
2023/09/22 06:56:18;;;;;;;2.72;0.70;;;15.50;99.90;;;;;;5006645;28;20022;-72
2023/09/22 06:58:47;;;;;;;1.45;0.80;;;15.50;99.90;;;;;;5009280;28;20571;-72
2023/09/22 07:01:19;;;;;;;3.92;0.82;;;15.60;99.90;;;;;;5009251;28;20036;-72
2023/09/22 07:03:48;;;;;;;2.92;0.90;;;15.60;99.90;;;;;;5017687;28;20021;-73
2023/09/22 07:06:18;;;;;;;2.38;0.85;;;15.60;99.90;;;;;;5009669;28;20548;-72
2023/09/22 07:08:50;;;;;;;1.23;0.70;;;15.60;99.90;;;;;;5021232;28;20041;-72
2023/09/22 07:11:28;;;;;;;1.80;0.90;;;15.70;99.90;;;;;;5009749;28;20030;-72
2023/09/22 07:13:54;;;;;;;2.25;0.60;;;15.70;99.90;;;;;;5008798;28;20018;-73
2023/09/22 07:16:20;;;;;;;1.27;0.70;;;15.70;99.90;;;;;;5012104;28;20101;-72
2023/09/22 07:18:46;;;;;;;1.75;0.80;;;15.70;99.90;;;;;;5010254;28;20113;-72
2023/09/22 07:21:12;;;;;;;4.18;1.15;;;15.70;99.90;;;;;;5004983;28;20491;-73
2023/09/22 07:23:37;;;;;;;1.73;0.60;;;15.70;99.90;;;;;;5023973;28;20037;-72
2023/09/22 07:26:11;;;;;;;1.15;0.50;;;15.80;99.90;;;;;;5019952;28;20061;-72
2023/09/22 07:28:37;;;;;;;1.95;0.50;;;15.80;99.90;;;;;;5008757;28;20026;-73
2023/09/22 07:31:13;;;;;;;1.33;0.60;;;15.80;99.90;;;;;;5003648;28;20114;-73
2023/09/22 07:33:45;;;;;;;4.15;0.93;;;15.80;99.90;;;;;;5001845;28;20409;-73
2023/09/22 07:36:29;;;;;;;4.32;1.35;;;15.90;99.90;;;;;;5006925;28;20033;-72
2023/09/22 07:38:54;;;;;;;2.50;0.80;;;15.90;99.90;;;;;;5007658;28;20030;-73
2023/09/22 07:41:26;;;;;;;2.70;0.70;;;15.90;99.90;;;;;;5005095;28;20031;-73
2023/09/22 07:43:55;;;;;;;2.28;1.33;;;15.90;99.90;;;;;;5005142;28;20036;-72
2023/09/22 07:46:22;;;;;;;1.95;0.60;;;15.90;99.90;;;;;;5005024;28;20022;-72
2023/09/22 07:48:51;;;;;;;1.75;0.70;;;15.90;99.90;;;;;;5002949;28;20133;-72
2023/09/22 07:51:16;;;;;;;2.55;0.82;;;16.00;99.90;;;;;;5005417;28;20524;-73
2023/09/22 07:53:56;;;;;;;4.78;1.15;;;16.00;99.90;;;;;;4997914;28;20054;-73
2023/09/22 07:56:30;;;;;;;2.17;0.80;;;16.00;99.90;;;;;;5002249;28;20022;-73
2023/09/22 07:58:59;;;;;;;1.92;0.70;;;16.00;99.90;;;;;;5002311;28;20019;-73
2023/09/22 08:01:26;;;;;;;1.30;0.60;;;16.10;99.90;;;;;;5009095;28;20022;-73
2023/09/22 08:03:51;;;;;;;2.92;1.00;;;16.00;99.90;;;;;;5010002;28;20030;-74
2023/09/22 08:06:23;;;;;;;2.80;1.02;;;16.10;99.90;;;;;;5003662;28;20038;-73
2023/09/22 08:08:49;;;;;;;2.55;1.13;;;16.10;99.90;;;;;;5005266;28;20096;-72
2023/09/22 08:11:23;;;;;;;2.67;1.00;;;16.20;99.90;;;;;;5006746;28;20660;-73
2023/09/22 08:13:49;;;;;;;2.63;0.90;;;16.20;99.90;;;;;;5001384;28;20053;-73
2023/09/22 08:16:44;;;;;;;2.28;1.08;;;16.20;99.90;;;;;;5009341;28;20038;-72
2023/09/22 08:19:11;;;;;;;2.40;0.93;;;16.20;99.90;;;;;;4999020;28;20121;-73
2023/09/22 08:21:58;;;;;;;4.38;1.55;;;16.20;99.90;;;;;;5006353;28;20026;-72
2023/09/22 08:24:33;;;;;;;2.05;0.80;;;16.20;99.90;;;;;;5001566;28;20121;-73
2023/09/22 08:26:59;;;;;;;4.22;0.90;;;16.20;99.90;;;;;;5002646;28;20022;-73
2023/09/22 08:29:25;;;;;;;3.72;0.90;;;16.20;99.90;;;;;;5001624;28;20507;-72
2023/09/22 08:31:55;;;;;;;1.55;0.82;;;16.30;99.90;;;;;;5004331;28;20058;-72
2023/09/22 08:34:29;;;;;;;2.50;0.60;;;16.30;99.90;;;;;;5003196;28;20074;-73
2023/09/22 08:36:55;;;;;;;1.17;0.60;;;16.30;99.90;;;;;;5003389;28;20018;-72
2023/09/22 08:39:25;;;;;;;2.42;0.80;;;16.40;99.90;;;;;;5004538;28;20033;-71
2023/09/22 08:41:58;;;;;;;3.28;1.00;;;16.40;99.90;;;;;;5003645;28;20104;-72
2023/09/22 08:44:25;;;;;;;2.78;0.85;;;16.50;99.90;;;;;;5008002;28;20128;-72
2023/09/22 08:46:54;;;;;;;2.03;0.50;;;16.50;99.90;;;;;;5007911;28;20041;-71
2023/09/22 08:49:32;;;;;;;0.70;0.50;;;16.60;99.90;;;;;;4991237;23;20051;-72
2023/09/22 08:52:00;;;;;;;1.48;0.57;;;16.60;99.90;;;;;;4974311;28;20089;-73
2023/09/22 08:54:31;;;;;;;1.90;0.63;;;16.70;99.90;;;;;;4974457;28;20070;-73
2023/09/22 08:56:57;;;;;;;0.88;0.40;;;16.70;99.90;;;;;;4974250;28;20101;-73
2023/09/22 08:59:23;;;;;;;2.15;0.50;;;16.70;99.90;;;;;;4987660;28;20489;-73
2023/09/22 09:01:49;;;;;;;1.70;0.52;;;16.70;99.90;;;;;;4973766;28;20093;-73
2023/09/22 09:04:39;;;;;;;1.25;0.57;;;16.80;99.90;;;;;;4972329;28;20034;-73
2023/09/22 09:07:08;;;;;;;1.08;0.65;;;16.80;99.90;;;;;;4972269;28;20034;-73
2023/09/22 09:09:49;;;;;;;3.42;0.90;;;16.80;99.90;;;;;;4984191;28;20061;-73
2023/09/22 09:12:15;;;;;;;1.80;1.02;;;16.80;99.90;;;;;;4971644;28;20018;-73
2023/09/22 09:14:43;;;;;;;2.05;0.93;;;16.80;99.90;;;;;;4987223;28;20076;-73
2023/09/22 09:17:26;;;;;;;2.15;0.82;;;16.90;99.90;;;;;;4972121;28;20019;-73
2023/09/22 09:19:56;;;;;;;2.20;0.80;;;16.80;99.90;;;;;;4974573;28;20026;-73
2023/09/22 09:22:38;;;;;;;3.75;1.30;;;16.80;99.90;;;;;;4970013;28;20031;-73
2023/09/22 09:25:10;;;;;;;3.08;1.35;;;16.80;99.90;;;;;;4973290;28;20031;-73
2023/09/22 09:27:36;;;;;;;2.65;1.33;;;16.90;99.90;;;;;;4971056;28;20065;-73
2023/09/22 09:30:08;;;;;;;2.53;0.63;;;16.90;99.90;;;;;;4972331;28;20022;-73
2023/09/22 09:32:36;;;;;;;0.70;0.50;;;16.80;99.90;;;;;;4972175;28;20027;-73
2023/09/22 09:35:02;;;;;;;3.20;0.93;;;16.90;99.90;;;;;;4972539;28;20019;-73
2023/09/22 09:37:28;;;;;;;1.52;0.40;;;16.80;99.90;;;;;;4988390;28;20035;-73
2023/09/22 09:39:57;;;;;;;1.52;0.40;;;16.90;99.90;;;;;;4973087;28;20392;-73
2023/09/22 09:42:28;;;;;;;1.23;0.70;;;16.90;99.90;;;;;;4972943;28;20724;-73
2023/09/22 09:44:57;;;;;;;1.88;0.75;;;16.90;99.90;;;;;;4975099;28;20023;-73
2023/09/22 09:47:34;;;;;;;0.82;0.50;;;16.90;99.90;;;;;;4973527;28;20110;-73
2023/09/22 09:50:00;;;;;;;1.60;0.55;;;16.90;99.90;;;;;;4973440;28;20030;-75
2023/09/22 09:52:30;;;;;;;2.60;0.80;;;16.90;99.90;;;;;;4972339;28;20034;-73
2023/09/22 09:55:24;;;;;;;2.45;0.80;;;16.90;99.90;;;;;;4963998;28;20027;-73
2023/09/22 09:57:53;;;;;;;1.58;0.70;;;16.90;99.90;;;;;;4973533;28;20113;-73
2023/09/22 10:00:26;;;;;;;2.35;0.80;;;16.90;99.90;;;;;;4985932;28;20023;-73
2023/09/22 10:03:03;;;;;;;0.90;0.50;;;16.90;99.90;;;;;;4972440;28;20022;-74
2023/09/22 10:05:32;;;;;;;0.57;0.45;;;17.00;99.90;;;;;;4974304;28;20023;-73
2023/09/22 10:08:01;;;;;;;0.80;0.40;;;17.00;99.90;;;;;;4972683;28;20022;-73
2023/09/22 10:10:28;;;;;;;1.52;0.90;;;17.10;99.90;;;;;;4974988;28;20037;-74
2023/09/22 10:12:54;;;;;;;1.45;0.50;;;17.10;99.90;;;;;;4974409;28;20121;-73
2023/09/22 10:15:49;;;;;;;1.02;0.57;;;17.20;99.90;;;;;;4971528;28;20022;-73
2023/09/22 10:18:17;;;;;;;0.88;0.55;;;17.30;99.90;;;;;;4974091;28;20026;-73
2023/09/22 10:20:49;;;;;;;1.30;0.70;;;17.30;99.90;;;;;;4972608;28;20478;-73
2023/09/22 10:23:27;;;;;;;0.98;0.60;;;17.30;99.90;;;;;;4970761;28;20030;-73
2023/09/22 10:26:16;;;;;;;2.78;0.70;;;17.30;99.90;;;;;;4971420;28;20038;-73
2023/09/22 10:28:41;;;;;;;0.90;0.60;;;17.40;99.90;;;;;;4967261;28;20034;-73
2023/09/22 10:31:17;;;;;;;1.70;0.80;;;17.40;99.90;;;;;;4969483;28;20393;-73
2023/09/22 10:33:46;;;;;;;1.33;0.57;;;17.30;99.90;;;;;;4972214;28;20026;-73
2023/09/22 10:36:44;;;;;;;1.27;0.70;;;17.40;99.90;;;;;;4971361;28;20545;-74
2023/09/22 10:39:22;;;;;;;2.80;1.88;;;17.40;99.90;;;;;;4992295;28;20043;-73
2023/09/22 10:42:00;;;;;;;0.90;0.50;;;17.40;99.90;;;;;;4970193;28;20153;-73
2023/09/22 10:44:49;;;;;;;1.20;0.73;;;17.40;99.90;;;;;;4971722;28;20034;-73
2023/09/22 10:47:21;;;;;;;3.78;0.80;;;17.40;99.90;;;;;;4986250;28;20081;-74
2023/09/22 10:49:49;;;;;;;4.80;1.23;;;17.40;99.90;;;;;;4971745;28;20042;-73
2023/09/22 10:52:17;;;;;;;1.60;0.63;;;17.40;99.90;;;;;;4967929;28;20031;-73
2023/09/22 10:54:47;;;;;;;1.35;0.85;;;17.40;99.90;;;;;;4970438;28;20027;-73
2023/09/22 10:57:23;;;;;;;0.95;0.68;;;17.50;99.90;;;;;;4971516;28;20583;-74
2023/09/22 10:59:52;;;;;;;2.15;0.80;;;17.40;99.90;;;;;;4971430;28;20102;-73
2023/09/22 11:02:25;;;;;;;2.00;0.60;;;17.40;99.90;;;;;;4971053;28;20050;-73
2023/09/22 11:04:50;;;;;;;0.68;0.45;;;17.40;99.90;;;;;;4970017;28;20118;-73
2023/09/22 11:07:35;;;;;;;0.52;0.40;;;17.50;99.90;;;;;;4972273;28;20117;-73
2023/09/22 11:10:02;;;;;;;1.17;0.70;;;17.50;99.90;;;;;;4969252;28;20117;-73
2023/09/22 11:12:28;;;;;;;1.67;0.70;;;17.50;99.90;;;;;;4972717;28;20034;-73
2023/09/22 11:14:55;;;;;;;1.27;0.50;;;17.50;99.90;;;;;;4974798;28;20386;-73
2023/09/22 11:17:46;;;;;;;4.85;1.40;;;17.60;99.90;;;;;;4991818;28;20670;-73
2023/09/22 11:20:17;;;;;;;1.85;0.70;;;17.60;99.90;;;;;;4974305;28;20164;-73
2023/09/22 11:22:50;;;;;;;1.60;0.60;;;17.70;99.90;;;;;;4976618;28;20510;-73
2023/09/22 11:25:16;;;;;;;0.77;0.40;;;17.80;99.90;;;;;;4974925;28;20495;-73
2023/09/22 11:27:59;;;;;;;1.40;0.50;;;17.80;99.90;;;;;;4974415;28;20058;-73
2023/09/22 11:30:36;;;;;;;1.77;0.75;;;17.80;99.90;;;;;;4971074;28;20081;-73
2023/09/22 11:33:13;;;;;;;4.88;0.70;;;17.90;99.90;;;;;;4973493;28;20046;-73
2023/09/22 11:35:41;;;;;;;2.00;0.50;;;18.00;99.90;;;;;;4973927;28;20073;-73
2023/09/22 11:38:26;;;;;;;2.75;0.85;;;18.10;99.90;;;;;;4976247;28;20096;-73
2023/09/22 11:41:10;;;;;;;1.08;0.52;;;18.10;99.90;;;;;;4971952;28;20020;-73
2023/09/22 11:43:39;;;;;;;1.13;0.63;;;18.20;99.90;;;;;;4971557;28;20050;-73
2023/09/22 11:46:13;;;;;;;2.60;0.70;;;18.20;99.90;;;;;;4988189;28;20045;-73
2023/09/22 11:49:04;;;;;;;2.90;0.65;;;18.30;99.90;;;;;;4974390;28;20096;-73
2023/09/22 11:51:39;;;;;;;3.80;1.17;;;18.40;99.90;;;;;;4974606;28;20019;-73
2023/09/22 11:54:04;;;;;;;10.07;3.60;;;18.40;99.90;;;;;;4973864;28;20030;-73
2023/09/22 11:56:33;;;;;;;8.50;1.30;;;18.50;99.90;;;;;;4973513;28;20029;-73
2023/09/22 11:59:23;;;;;;;2.30;0.77;;;18.50;99.90;;;;;;4974036;28;20367;-73
2023/09/22 12:01:50;;;;;;;2.58;1.13;;;18.50;99.90;;;;;;4970424;28;20027;-73
2023/09/22 12:04:18;;;;;;;1.52;0.80;;;18.50;99.90;;;;;;4972802;28;20388;-73
2023/09/22 12:06:44;;;;;;;1.75;0.47;;;18.60;99.90;;;;;;4970425;28;20073;-73
2023/09/22 12:09:13;;;;;;;1.83;0.60;;;18.70;99.90;;;;;;4974632;28;20027;-73
2023/09/22 12:11:39;;;;;;;1.20;0.50;;;18.70;99.90;;;;;;4986246;28;20117;-74
2023/09/22 12:14:06;;;;;;;0.95;0.45;;;18.70;99.90;;;;;;4976408;28;20027;-73
2023/09/22 12:16:32;;;;;;;0.60;0.40;;;18.60;99.90;;;;;;4972892;28;20035;-73
2023/09/22 12:18:58;;;;;;;1.52;0.60;;;18.60;99.90;;;;;;4972592;28;20126;-73
2023/09/22 12:21:27;;;;;;;1.60;0.68;;;18.60;99.90;;;;;;4974920;28;20034;-73
2023/09/22 12:23:56;;;;;;;1.10;0.40;;;18.50;99.90;;;;;;4988932;28;20023;-73
2023/09/22 12:26:22;;;;;;;2.50;0.63;;;18.60;99.90;;;;;;4988970;28;20019;-73
2023/09/22 12:28:51;;;;;;;2.00;0.65;;;18.60;99.90;;;;;;4988063;28;20033;-74
2023/09/22 12:31:20;;;;;;;1.48;0.73;;;18.60;99.90;;;;;;4975138;28;20101;-75
2023/09/22 12:33:46;;;;;;;1.08;0.43;;;18.70;99.90;;;;;;4975008;28;20023;-74
2023/09/22 12:36:18;;;;;;;0.77;0.43;;;18.80;99.90;;;;;;4973690;28;20015;-74
2023/09/22 12:38:45;;;;;;;1.58;0.68;;;18.90;99.90;;;;;;4969772;28;20062;-74
2023/09/22 12:41:25;;;;;;;2.65;0.57;;;18.90;99.90;;;;;;4971872;28;20100;-74
2023/09/22 12:43:51;;;;;;;1.40;0.52;;;19.00;99.90;;;;;;4991352;28;20027;-75
2023/09/22 12:46:23;;;;;;;0.65;0.43;;;19.00;99.90;;;;;;4973982;28;20362;-75
2023/09/22 12:48:48;;;;;;;1.55;0.38;;;19.00;99.90;;;;;;4967115;28;20030;-77
2023/09/22 12:51:14;;;;;;;2.38;0.55;;;19.10;99.90;;;;;;4967094;28;20046;-75
2023/09/22 12:53:47;;;;;;;2.17;0.43;;;19.10;99.90;;;;;;4971131;28;20092;-76
2023/09/22 12:56:13;;;;;;;1.08;0.55;;;19.20;99.90;;;;;;4966049;28;20031;-76
2023/09/22 12:58:38;;;;;;;0.68;0.63;;;19.20;99.90;;;;;;4969743;28;20042;-75
2023/09/22 13:01:10;;;;;;;3.65;0.70;;;19.20;99.90;;;;;;4967692;28;20034;-76